sensor_id;sensor_type;location;lat;lon;timestamp;P1;durP1;ratioP1;P2;durP2;ratioP2
70165;SDS011;57541;47.408;18.822;2022-09-09T00:00:25;5.72;;;2.25;;
70165;SDS011;57541;47.408;18.822;2022-09-09T00:01:07;4.88;;;2.10;;
70165;SDS011;57541;47.408;18.822;2022-09-09T00:03:08;5.22;;;2.38;;
70165;SDS011;57541;47.408;18.822;2022-09-09T00:03:47;4.55;;;2.05;;
70165;SDS011;57541;47.408;18.822;2022-09-09T00:04:34;5.38;;;2.30;;
70165;SDS011;57541;47.408;18.822;2022-09-09T00:06:11;8.07;;;2.65;;
70165;SDS011;57541;47.408;18.822;2022-09-09T00:06:59;4.53;;;2.05;;
70165;SDS011;57541;47.408;18.822;2022-09-09T00:08:25;4.50;;;2.15;;
70165;SDS011;57541;47.408;18.822;2022-09-09T00:09:12;4.73;;;2.10;;
70165;SDS011;57541;47.408;18.822;2022-09-09T00:09:57;6.15;;;2.38;;
70165;SDS011;57541;47.408;18.822;2022-09-09T00:10:51;4.45;;;2.00;;
70165;SDS011;57541;47.408;18.822;2022-09-09T00:11:34;4.57;;;2.22;;
70165;SDS011;57541;47.408;18.822;2022-09-09T00:12:14;4.75;;;2.33;;
70165;SDS011;57541;47.408;18.822;2022-09-09T00:13:48;5.10;;;2.33;;
70165;SDS011;57541;47.408;18.822;2022-09-09T00:15:04;4.10;;;2.00;;
70165;SDS011;57541;47.408;18.822;2022-09-09T00:15:51;4.25;;;1.92;;
70165;SDS011;57541;47.408;18.822;2022-09-09T00:16:28;5.20;;;2.20;;
70165;SDS011;57541;47.408;18.822;2022-09-09T00:19:44;4.90;;;2.28;;
70165;SDS011;57541;47.408;18.822;2022-09-09T00:20:39;4.40;;;2.15;;
70165;SDS011;57541;47.408;18.822;2022-09-09T00:21:19;4.70;;;2.00;;
70165;SDS011;57541;47.408;18.822;2022-09-09T00:22:35;4.07;;;1.98;;
70165;SDS011;57541;47.408;18.822;2022-09-09T00:23:14;5.85;;;2.17;;
70165;SDS011;57541;47.408;18.822;2022-09-09T00:23:51;4.50;;;2.17;;
70165;SDS011;57541;47.408;18.822;2022-09-09T00:25:15;4.55;;;2.35;;
70165;SDS011;57541;47.408;18.822;2022-09-09T00:25:58;4.10;;;2.00;;
70165;SDS011;57541;47.408;18.822;2022-09-09T00:26:52;7.28;;;2.35;;
70165;SDS011;57541;47.408;18.822;2022-09-09T00:27:41;6.07;;;1.80;;
70165;SDS011;57541;47.408;18.822;2022-09-09T00:28:20;4.80;;;2.33;;
70165;SDS011;57541;47.408;18.822;2022-09-09T00:29:09;5.90;;;2.22;;
70165;SDS011;57541;47.408;18.822;2022-09-09T00:29:56;4.68;;;2.10;;
70165;SDS011;57541;47.408;18.822;2022-09-09T00:30:32;5.85;;;2.05;;
70165;SDS011;57541;47.408;18.822;2022-09-09T00:31:11;5.47;;;2.13;;
70165;SDS011;57541;47.408;18.822;2022-09-09T00:31:45;4.82;;;2.15;;
70165;SDS011;57541;47.408;18.822;2022-09-09T00:32:18;4.40;;;1.80;;
70165;SDS011;57541;47.408;18.822;2022-09-09T00:32:54;4.88;;;2.15;;
70165;SDS011;57541;47.408;18.822;2022-09-09T00:33:29;5.40;;;1.80;;
70165;SDS011;57541;47.408;18.822;2022-09-09T00:34:09;4.25;;;1.92;;
70165;SDS011;57541;47.408;18.822;2022-09-09T00:34:49;4.35;;;2.05;;
70165;SDS011;57541;47.408;18.822;2022-09-09T00:35:38;5.82;;;2.10;;
70165;SDS011;57541;47.408;18.822;2022-09-09T00:36:14;5.75;;;2.35;;
70165;SDS011;57541;47.408;18.822;2022-09-09T00:36:49;5.10;;;1.90;;
70165;SDS011;57541;47.408;18.822;2022-09-09T00:37:23;4.37;;;1.97;;
70165;SDS011;57541;47.408;18.822;2022-09-09T00:37:58;6.63;;;2.10;;
70165;SDS011;57541;47.408;18.822;2022-09-09T00:38:40;5.80;;;1.92;;
70165;SDS011;57541;47.408;18.822;2022-09-09T00:39:29;7.47;;;2.42;;
70165;SDS011;57541;47.408;18.822;2022-09-09T00:40:13;4.68;;;1.83;;
70165;SDS011;57541;47.408;18.822;2022-09-09T00:40:59;6.43;;;2.22;;
70165;SDS011;57541;47.408;18.822;2022-09-09T00:41:41;5.70;;;2.08;;
70165;SDS011;57541;47.408;18.822;2022-09-09T00:42:24;4.88;;;2.13;;
70165;SDS011;57541;47.408;18.822;2022-09-09T00:43:10;4.57;;;2.17;;
70165;SDS011;57541;47.408;18.822;2022-09-09T00:43:57;7.43;;;2.20;;
70165;SDS011;57541;47.408;18.822;2022-09-09T00:44:37;5.17;;;2.40;;
70165;SDS011;57541;47.408;18.822;2022-09-09T00:46:53;9.85;;;2.72;;
70165;SDS011;57541;47.408;18.822;2022-09-09T00:48:16;4.88;;;2.50;;
70165;SDS011;57541;47.408;18.822;2022-09-09T00:50:36;4.80;;;2.30;;
70165;SDS011;57541;47.408;18.822;2022-09-09T00:51:33;5.97;;;2.33;;
70165;SDS011;57541;47.408;18.822;2022-09-09T00:54:30;4.85;;;2.13;;
70165;SDS011;57541;47.408;18.822;2022-09-09T00:55:21;4.78;;;2.08;;
70165;SDS011;57541;47.408;18.822;2022-09-09T00:56:09;5.45;;;2.40;;
70165;SDS011;57541;47.408;18.822;2022-09-09T00:56:55;4.60;;;2.22;;
70165;SDS011;57541;47.408;18.822;2022-09-09T00:57:48;6.75;;;2.00;;
70165;SDS011;57541;47.408;18.822;2022-09-09T00:58:23;4.95;;;2.50;;
70165;SDS011;57541;47.408;18.822;2022-09-09T00:58:58;7.65;;;2.10;;
70165;SDS011;57541;47.408;18.822;2022-09-09T00:59:50;6.03;;;2.03;;
70165;SDS011;57541;47.408;18.822;2022-09-09T01:00:29;5.70;;;2.15;;
70165;SDS011;57541;47.408;18.822;2022-09-09T01:01:05;4.90;;;2.53;;
70165;SDS011;57541;47.408;18.822;2022-09-09T01:01:40;6.45;;;2.50;;
70165;SDS011;57541;47.408;18.822;2022-09-09T01:02:19;4.95;;;2.30;;
70165;SDS011;57541;47.408;18.822;2022-09-09T01:04:24;6.07;;;2.58;;
70165;SDS011;57541;47.408;18.822;2022-09-09T01:05:07;5.53;;;2.00;;
70165;SDS011;57541;47.408;18.822;2022-09-09T01:06:31;5.13;;;2.07;;
70165;SDS011;57541;47.408;18.822;2022-09-09T01:07:13;5.63;;;2.42;;
70165;SDS011;57541;47.408;18.822;2022-09-09T01:07:48;4.80;;;2.40;;
70165;SDS011;57541;47.408;18.822;2022-09-09T01:09:16;5.13;;;2.38;;
70165;SDS011;57541;47.408;18.822;2022-09-09T01:09:55;4.68;;;1.90;;
70165;SDS011;57541;47.408;18.822;2022-09-09T01:10:33;4.78;;;2.20;;
70165;SDS011;57541;47.408;18.822;2022-09-09T01:11:20;4.60;;;2.15;;
70165;SDS011;57541;47.408;18.822;2022-09-09T01:12:41;4.50;;;2.20;;
70165;SDS011;57541;47.408;18.822;2022-09-09T01:13:24;4.87;;;2.50;;
70165;SDS011;57541;47.408;18.822;2022-09-09T01:14:20;5.95;;;2.15;;
70165;SDS011;57541;47.408;18.822;2022-09-09T01:15:58;4.85;;;2.40;;
70165;SDS011;57541;47.408;18.822;2022-09-09T01:16:32;5.75;;;1.92;;
70165;SDS011;57541;47.408;18.822;2022-09-09T01:18:13;5.88;;;2.08;;
70165;SDS011;57541;47.408;18.822;2022-09-09T01:18:49;4.80;;;2.20;;
70165;SDS011;57541;47.408;18.822;2022-09-09T01:19:27;4.75;;;2.22;;
70165;SDS011;57541;47.408;18.822;2022-09-09T01:21:40;4.40;;;1.80;;
70165;SDS011;57541;47.408;18.822;2022-09-09T01:24:13;4.45;;;2.08;;
70165;SDS011;57541;47.408;18.822;2022-09-09T01:27:08;4.80;;;2.20;;
70165;SDS011;57541;47.408;18.822;2022-09-09T01:27:41;5.82;;;2.30;;
70165;SDS011;57541;47.408;18.822;2022-09-09T01:28:19;4.72;;;2.03;;
70165;SDS011;57541;47.408;18.822;2022-09-09T01:28:53;6.33;;;2.20;;
70165;SDS011;57541;47.408;18.822;2022-09-09T01:29:25;4.55;;;2.15;;
70165;SDS011;57541;47.408;18.822;2022-09-09T01:29:57;4.40;;;2.20;;
70165;SDS011;57541;47.408;18.822;2022-09-09T01:30:30;6.05;;;2.40;;
70165;SDS011;57541;47.408;18.822;2022-09-09T01:31:04;5.35;;;2.50;;
70165;SDS011;57541;47.408;18.822;2022-09-09T01:31:39;5.32;;;2.15;;
70165;SDS011;57541;47.408;18.822;2022-09-09T01:33:17;4.32;;;2.00;;
70165;SDS011;57541;47.408;18.822;2022-09-09T01:33:49;4.70;;;2.30;;
70165;SDS011;57541;47.408;18.822;2022-09-09T01:34:21;5.25;;;2.70;;
70165;SDS011;57541;47.408;18.822;2022-09-09T01:34:56;5.17;;;2.40;;
70165;SDS011;57541;47.408;18.822;2022-09-09T01:35:37;4.50;;;2.30;;
70165;SDS011;57541;47.408;18.822;2022-09-09T01:37:38;5.45;;;2.67;;
70165;SDS011;57541;47.408;18.822;2022-09-09T01:38:10;5.20;;;2.45;;
70165;SDS011;57541;47.408;18.822;2022-09-09T01:38:41;4.95;;;2.58;;
70165;SDS011;57541;47.408;18.822;2022-09-09T01:39:13;4.97;;;2.50;;
70165;SDS011;57541;47.408;18.822;2022-09-09T01:39:45;5.95;;;2.80;;
70165;SDS011;57541;47.408;18.822;2022-09-09T01:40:17;6.07;;;2.67;;
70165;SDS011;57541;47.408;18.822;2022-09-09T01:40:49;6.13;;;2.70;;
70165;SDS011;57541;47.408;18.822;2022-09-09T01:41:23;5.30;;;2.40;;
70165;SDS011;57541;47.408;18.822;2022-09-09T01:41:54;4.72;;;2.50;;
70165;SDS011;57541;47.408;18.822;2022-09-09T01:42:27;4.63;;;2.67;;
70165;SDS011;57541;47.408;18.822;2022-09-09T01:42:59;5.78;;;2.50;;
70165;SDS011;57541;47.408;18.822;2022-09-09T01:43:31;5.68;;;2.63;;
70165;SDS011;57541;47.408;18.822;2022-09-09T01:44:02;4.80;;;2.70;;
70165;SDS011;57541;47.408;18.822;2022-09-09T01:44:34;6.50;;;2.40;;
70165;SDS011;57541;47.408;18.822;2022-09-09T01:45:08;5.82;;;2.50;;
70165;SDS011;57541;47.408;18.822;2022-09-09T01:45:40;4.97;;;2.47;;
70165;SDS011;57541;47.408;18.822;2022-09-09T01:46:13;6.07;;;2.83;;
70165;SDS011;57541;47.408;18.822;2022-09-09T01:46:46;5.63;;;2.80;;
70165;SDS011;57541;47.408;18.822;2022-09-09T01:47:17;5.00;;;2.55;;
70165;SDS011;57541;47.408;18.822;2022-09-09T01:47:49;4.43;;;2.45;;
70165;SDS011;57541;47.408;18.822;2022-09-09T01:48:23;5.68;;;3.08;;
70165;SDS011;57541;47.408;18.822;2022-09-09T01:48:55;5.72;;;2.55;;
70165;SDS011;57541;47.408;18.822;2022-09-09T01:49:29;5.00;;;2.35;;
70165;SDS011;57541;47.408;18.822;2022-09-09T01:50:00;7.93;;;2.53;;
70165;SDS011;57541;47.408;18.822;2022-09-09T01:50:34;5.07;;;2.63;;
70165;SDS011;57541;47.408;18.822;2022-09-09T01:51:07;4.97;;;2.80;;
70165;SDS011;57541;47.408;18.822;2022-09-09T01:51:39;5.30;;;2.80;;
70165;SDS011;57541;47.408;18.822;2022-09-09T01:52:14;4.70;;;2.50;;
70165;SDS011;57541;47.408;18.822;2022-09-09T01:52:46;5.30;;;2.75;;
70165;SDS011;57541;47.408;18.822;2022-09-09T01:53:21;5.60;;;2.80;;
70165;SDS011;57541;47.408;18.822;2022-09-09T01:53:54;6.22;;;2.78;;
70165;SDS011;57541;47.408;18.822;2022-09-09T01:54:26;6.88;;;2.88;;
70165;SDS011;57541;47.408;18.822;2022-09-09T01:55:00;5.75;;;2.97;;
70165;SDS011;57541;47.408;18.822;2022-09-09T01:55:42;5.28;;;2.13;;
70165;SDS011;57541;47.408;18.822;2022-09-09T01:57:21;7.53;;;2.50;;
70165;SDS011;57541;47.408;18.822;2022-09-09T01:58:56;5.32;;;2.42;;
70165;SDS011;57541;47.408;18.822;2022-09-09T02:02:18;6.30;;;2.40;;
70165;SDS011;57541;47.408;18.822;2022-09-09T02:03:08;5.00;;;2.50;;
70165;SDS011;57541;47.408;18.822;2022-09-09T02:03:51;6.00;;;2.72;;
70165;SDS011;57541;47.408;18.822;2022-09-09T02:06:14;5.50;;;2.53;;
70165;SDS011;57541;47.408;18.822;2022-09-09T02:06:58;5.85;;;2.20;;
70165;SDS011;57541;47.408;18.822;2022-09-09T02:07:47;5.07;;;2.50;;
70165;SDS011;57541;47.408;18.822;2022-09-09T02:08:24;4.88;;;2.60;;
70165;SDS011;57541;47.408;18.822;2022-09-09T02:09:06;5.18;;;2.75;;
70165;SDS011;57541;47.408;18.822;2022-09-09T02:09:41;6.68;;;2.42;;
70165;SDS011;57541;47.408;18.822;2022-09-09T02:11:36;6.45;;;2.78;;
70165;SDS011;57541;47.408;18.822;2022-09-09T02:12:08;6.00;;;2.53;;
70165;SDS011;57541;47.408;18.822;2022-09-09T02:12:45;6.70;;;2.55;;
70165;SDS011;57541;47.408;18.822;2022-09-09T02:13:20;5.97;;;2.30;;
70165;SDS011;57541;47.408;18.822;2022-09-09T02:14:04;5.60;;;2.80;;
70165;SDS011;57541;47.408;18.822;2022-09-09T02:14:41;5.78;;;2.88;;
70165;SDS011;57541;47.408;18.822;2022-09-09T02:15:26;5.25;;;2.90;;
70165;SDS011;57541;47.408;18.822;2022-09-09T02:16:10;5.03;;;2.67;;
70165;SDS011;57541;47.408;18.822;2022-09-09T02:16:48;5.40;;;2.75;;
70165;SDS011;57541;47.408;18.822;2022-09-09T02:17:27;5.38;;;2.75;;
70165;SDS011;57541;47.408;18.822;2022-09-09T02:18:03;4.72;;;2.50;;
70165;SDS011;57541;47.408;18.822;2022-09-09T02:18:41;5.35;;;2.60;;
70165;SDS011;57541;47.408;18.822;2022-09-09T02:19:23;6.35;;;2.80;;
70165;SDS011;57541;47.408;18.822;2022-09-09T02:20:06;5.60;;;2.87;;
70165;SDS011;57541;47.408;18.822;2022-09-09T02:20:39;5.82;;;2.83;;
70165;SDS011;57541;47.408;18.822;2022-09-09T02:21:13;5.47;;;2.55;;
70165;SDS011;57541;47.408;18.822;2022-09-09T02:21:47;5.63;;;2.97;;
70165;SDS011;57541;47.408;18.822;2022-09-09T02:22:19;6.45;;;2.42;;
70165;SDS011;57541;47.408;18.822;2022-09-09T02:22:54;7.60;;;2.92;;
70165;SDS011;57541;47.408;18.822;2022-09-09T02:23:27;5.20;;;3.00;;
70165;SDS011;57541;47.408;18.822;2022-09-09T02:24:00;5.00;;;2.60;;
70165;SDS011;57541;47.408;18.822;2022-09-09T02:24:36;7.40;;;3.17;;
70165;SDS011;57541;47.408;18.822;2022-09-09T02:25:10;5.05;;;2.78;;
70165;SDS011;57541;47.408;18.822;2022-09-09T02:25:46;5.47;;;3.00;;
70165;SDS011;57541;47.408;18.822;2022-09-09T02:26:19;5.60;;;2.60;;
70165;SDS011;57541;47.408;18.822;2022-09-09T02:26:54;5.35;;;3.03;;
70165;SDS011;57541;47.408;18.822;2022-09-09T02:27:29;5.40;;;2.53;;
70165;SDS011;57541;47.408;18.822;2022-09-09T02:28:00;7.05;;;3.22;;
70165;SDS011;57541;47.408;18.822;2022-09-09T02:28:33;5.75;;;3.22;;
70165;SDS011;57541;47.408;18.822;2022-09-09T02:29:14;6.30;;;3.10;;
70165;SDS011;57541;47.408;18.822;2022-09-09T02:29:50;6.65;;;2.85;;
70165;SDS011;57541;47.408;18.822;2022-09-09T02:30:24;8.70;;;3.00;;
70165;SDS011;57541;47.408;18.822;2022-09-09T02:30:56;5.65;;;2.60;;
70165;SDS011;57541;47.408;18.822;2022-09-09T02:31:29;5.87;;;3.00;;
70165;SDS011;57541;47.408;18.822;2022-09-09T02:32:03;5.20;;;3.20;;
70165;SDS011;57541;47.408;18.822;2022-09-09T02:32:38;5.72;;;3.58;;
70165;SDS011;57541;47.408;18.822;2022-09-09T02:33:12;5.72;;;3.20;;
70165;SDS011;57541;47.408;18.822;2022-09-09T02:33:47;7.57;;;2.92;;
70165;SDS011;57541;47.408;18.822;2022-09-09T02:34:25;5.50;;;2.90;;
70165;SDS011;57541;47.408;18.822;2022-09-09T02:35:00;6.53;;;2.72;;
70165;SDS011;57541;47.408;18.822;2022-09-09T02:35:36;6.47;;;2.53;;
70165;SDS011;57541;47.408;18.822;2022-09-09T02:36:10;6.70;;;3.03;;
70165;SDS011;57541;47.408;18.822;2022-09-09T02:36:44;5.38;;;2.83;;
70165;SDS011;57541;47.408;18.822;2022-09-09T02:37:18;6.87;;;2.90;;
70165;SDS011;57541;47.408;18.822;2022-09-09T02:37:54;6.03;;;2.97;;
70165;SDS011;57541;47.408;18.822;2022-09-09T02:38:32;4.93;;;3.05;;
70165;SDS011;57541;47.408;18.822;2022-09-09T02:39:07;6.80;;;3.47;;
70165;SDS011;57541;47.408;18.822;2022-09-09T02:39:40;5.57;;;3.03;;
70165;SDS011;57541;47.408;18.822;2022-09-09T02:40:13;5.75;;;3.17;;
70165;SDS011;57541;47.408;18.822;2022-09-09T02:40:46;7.38;;;3.42;;
70165;SDS011;57541;47.408;18.822;2022-09-09T02:41:20;5.20;;;2.70;;
70165;SDS011;57541;47.408;18.822;2022-09-09T02:42:06;5.20;;;2.85;;
70165;SDS011;57541;47.408;18.822;2022-09-09T02:42:39;6.63;;;2.90;;
70165;SDS011;57541;47.408;18.822;2022-09-09T02:43:15;7.67;;;3.13;;
70165;SDS011;57541;47.408;18.822;2022-09-09T02:43:49;5.50;;;3.08;;
70165;SDS011;57541;47.408;18.822;2022-09-09T02:44:21;7.25;;;3.40;;
70165;SDS011;57541;47.408;18.822;2022-09-09T02:44:53;5.80;;;3.25;;
70165;SDS011;57541;47.408;18.822;2022-09-09T02:45:25;6.40;;;3.58;;
70165;SDS011;57541;47.408;18.822;2022-09-09T02:47:17;8.52;;;3.58;;
70165;SDS011;57541;47.408;18.822;2022-09-09T02:48:17;6.78;;;3.25;;
70165;SDS011;57541;47.408;18.822;2022-09-09T02:49:00;6.60;;;3.60;;
70165;SDS011;57541;47.408;18.822;2022-09-09T02:51:03;5.87;;;3.20;;
70165;SDS011;57541;47.408;18.822;2022-09-09T02:51:40;6.43;;;3.40;;
70165;SDS011;57541;47.408;18.822;2022-09-09T02:52:27;6.15;;;3.10;;
70165;SDS011;57541;47.408;18.822;2022-09-09T02:53:30;5.68;;;3.30;;
70165;SDS011;57541;47.408;18.822;2022-09-09T02:54:16;5.95;;;3.17;;
70165;SDS011;57541;47.408;18.822;2022-09-09T02:55:02;6.75;;;3.10;;
70165;SDS011;57541;47.408;18.822;2022-09-09T02:55:41;6.10;;;3.22;;
70165;SDS011;57541;47.408;18.822;2022-09-09T02:56:18;5.75;;;3.00;;
70165;SDS011;57541;47.408;18.822;2022-09-09T02:56:53;6.22;;;3.05;;
70165;SDS011;57541;47.408;18.822;2022-09-09T02:57:28;6.45;;;3.58;;
70165;SDS011;57541;47.408;18.822;2022-09-09T02:58:03;6.33;;;3.27;;
70165;SDS011;57541;47.408;18.822;2022-09-09T02:58:38;6.68;;;3.45;;
70165;SDS011;57541;47.408;18.822;2022-09-09T02:59:10;6.63;;;3.40;;
70165;SDS011;57541;47.408;18.822;2022-09-09T02:59:43;6.25;;;3.42;;
70165;SDS011;57541;47.408;18.822;2022-09-09T03:00:15;6.75;;;3.38;;
70165;SDS011;57541;47.408;18.822;2022-09-09T03:00:48;5.78;;;3.47;;
70165;SDS011;57541;47.408;18.822;2022-09-09T03:01:21;6.57;;;3.05;;
70165;SDS011;57541;47.408;18.822;2022-09-09T03:01:53;6.10;;;3.50;;
70165;SDS011;57541;47.408;18.822;2022-09-09T03:02:24;8.25;;;3.75;;
70165;SDS011;57541;47.408;18.822;2022-09-09T03:02:56;5.47;;;3.22;;
70165;SDS011;57541;47.408;18.822;2022-09-09T03:03:28;5.93;;;3.40;;
70165;SDS011;57541;47.408;18.822;2022-09-09T03:04:00;6.13;;;3.35;;
70165;SDS011;57541;47.408;18.822;2022-09-09T03:04:31;7.03;;;3.58;;
70165;SDS011;57541;47.408;18.822;2022-09-09T03:05:03;6.95;;;3.53;;
70165;SDS011;57541;47.408;18.822;2022-09-09T03:05:36;6.70;;;3.58;;
70165;SDS011;57541;47.408;18.822;2022-09-09T03:06:08;6.13;;;3.50;;
70165;SDS011;57541;47.408;18.822;2022-09-09T03:06:41;8.63;;;3.60;;
70165;SDS011;57541;47.408;18.822;2022-09-09T03:07:12;5.70;;;3.38;;
70165;SDS011;57541;47.408;18.822;2022-09-09T03:07:44;5.72;;;3.25;;
70165;SDS011;57541;47.408;18.822;2022-09-09T03:08:15;6.10;;;3.70;;
70165;SDS011;57541;47.408;18.822;2022-09-09T03:08:48;6.07;;;3.23;;
70165;SDS011;57541;47.408;18.822;2022-09-09T03:09:21;6.20;;;3.70;;
70165;SDS011;57541;47.408;18.822;2022-09-09T03:09:52;6.13;;;3.70;;
70165;SDS011;57541;47.408;18.822;2022-09-09T03:10:25;7.38;;;3.53;;
70165;SDS011;57541;47.408;18.822;2022-09-09T03:10:58;6.32;;;3.60;;
70165;SDS011;57541;47.408;18.822;2022-09-09T03:11:32;5.65;;;3.55;;
70165;SDS011;57541;47.408;18.822;2022-09-09T03:12:03;7.53;;;3.63;;
70165;SDS011;57541;47.408;18.822;2022-09-09T03:12:35;6.30;;;3.67;;
70165;SDS011;57541;47.408;18.822;2022-09-09T03:13:07;5.78;;;3.70;;
70165;SDS011;57541;47.408;18.822;2022-09-09T03:13:39;5.93;;;3.35;;
70165;SDS011;57541;47.408;18.822;2022-09-09T03:14:10;6.50;;;3.73;;
70165;SDS011;57541;47.408;18.822;2022-09-09T03:14:42;5.75;;;3.38;;
70165;SDS011;57541;47.408;18.822;2022-09-09T03:15:16;6.68;;;3.38;;
70165;SDS011;57541;47.408;18.822;2022-09-09T03:15:48;8.25;;;3.50;;
70165;SDS011;57541;47.408;18.822;2022-09-09T03:16:20;6.40;;;3.70;;
70165;SDS011;57541;47.408;18.822;2022-09-09T03:16:52;6.93;;;4.05;;
70165;SDS011;57541;47.408;18.822;2022-09-09T03:17:25;6.97;;;3.42;;
70165;SDS011;57541;47.408;18.822;2022-09-09T03:17:59;8.27;;;3.70;;
70165;SDS011;57541;47.408;18.822;2022-09-09T03:18:31;7.03;;;3.63;;
70165;SDS011;57541;47.408;18.822;2022-09-09T03:19:03;7.53;;;3.28;;
70165;SDS011;57541;47.408;18.822;2022-09-09T03:19:35;7.03;;;4.17;;
70165;SDS011;57541;47.408;18.822;2022-09-09T03:20:07;6.53;;;3.63;;
70165;SDS011;57541;47.408;18.822;2022-09-09T03:20:39;6.97;;;4.05;;
70165;SDS011;57541;47.408;18.822;2022-09-09T03:21:13;6.28;;;3.38;;
70165;SDS011;57541;47.408;18.822;2022-09-09T03:21:45;6.72;;;3.55;;
70165;SDS011;57541;47.408;18.822;2022-09-09T03:22:18;7.80;;;3.60;;
70165;SDS011;57541;47.408;18.822;2022-09-09T03:22:49;6.20;;;4.00;;
70165;SDS011;57541;47.408;18.822;2022-09-09T03:23:21;6.65;;;3.35;;
70165;SDS011;57541;47.408;18.822;2022-09-09T03:23:52;6.47;;;3.35;;
70165;SDS011;57541;47.408;18.822;2022-09-09T03:24:24;5.90;;;3.20;;
70165;SDS011;57541;47.408;18.822;2022-09-09T03:24:56;5.43;;;3.33;;
70165;SDS011;57541;47.408;18.822;2022-09-09T03:25:28;7.32;;;3.40;;
70165;SDS011;57541;47.408;18.822;2022-09-09T03:25:59;6.18;;;3.40;;
70165;SDS011;57541;47.408;18.822;2022-09-09T03:26:32;6.05;;;3.33;;
70165;SDS011;57541;47.408;18.822;2022-09-09T03:27:03;6.03;;;3.50;;
70165;SDS011;57541;47.408;18.822;2022-09-09T03:27:35;6.10;;;3.42;;
70165;SDS011;57541;47.408;18.822;2022-09-09T03:28:07;6.65;;;3.50;;
70165;SDS011;57541;47.408;18.822;2022-09-09T03:28:38;5.93;;;3.58;;
70165;SDS011;57541;47.408;18.822;2022-09-09T03:29:10;6.22;;;3.47;;
70165;SDS011;57541;47.408;18.822;2022-09-09T03:29:43;5.93;;;3.40;;
70165;SDS011;57541;47.408;18.822;2022-09-09T03:30:16;6.47;;;3.57;;
70165;SDS011;57541;47.408;18.822;2022-09-09T03:30:47;6.38;;;3.45;;
70165;SDS011;57541;47.408;18.822;2022-09-09T03:31:20;9.25;;;3.45;;
70165;SDS011;57541;47.408;18.822;2022-09-09T03:31:51;6.07;;;3.20;;
70165;SDS011;57541;47.408;18.822;2022-09-09T03:32:23;6.18;;;3.10;;
70165;SDS011;57541;47.408;18.822;2022-09-09T03:32:56;6.20;;;3.50;;
70165;SDS011;57541;47.408;18.822;2022-09-09T03:33:28;6.00;;;3.60;;
70165;SDS011;57541;47.408;18.822;2022-09-09T03:34:00;7.70;;;3.83;;
70165;SDS011;57541;47.408;18.822;2022-09-09T03:34:32;5.60;;;3.22;;
70165;SDS011;57541;47.408;18.822;2022-09-09T03:35:03;6.63;;;3.35;;
70165;SDS011;57541;47.408;18.822;2022-09-09T03:35:35;9.20;;;3.70;;
70165;SDS011;57541;47.408;18.822;2022-09-09T03:36:07;6.57;;;3.42;;
70165;SDS011;57541;47.408;18.822;2022-09-09T03:36:39;7.32;;;4.00;;
70165;SDS011;57541;47.408;18.822;2022-09-09T03:37:12;6.20;;;3.60;;
70165;SDS011;57541;47.408;18.822;2022-09-09T03:37:43;7.10;;;3.60;;
70165;SDS011;57541;47.408;18.822;2022-09-09T03:38:15;5.70;;;3.10;;
70165;SDS011;57541;47.408;18.822;2022-09-09T03:38:46;6.15;;;3.60;;
70165;SDS011;57541;47.408;18.822;2022-09-09T03:39:18;6.38;;;3.38;;
70165;SDS011;57541;47.408;18.822;2022-09-09T03:39:50;6.57;;;3.50;;
70165;SDS011;57541;47.408;18.822;2022-09-09T03:40:21;6.85;;;3.50;;
70165;SDS011;57541;47.408;18.822;2022-09-09T03:40:54;6.57;;;3.73;;
70165;SDS011;57541;47.408;18.822;2022-09-09T03:41:28;6.65;;;3.17;;
70165;SDS011;57541;47.408;18.822;2022-09-09T03:42:00;6.80;;;3.42;;
70165;SDS011;57541;47.408;18.822;2022-09-09T03:42:35;7.03;;;3.85;;
70165;SDS011;57541;47.408;18.822;2022-09-09T03:43:08;8.27;;;3.40;;
70165;SDS011;57541;47.408;18.822;2022-09-09T03:43:40;7.30;;;3.50;;
70165;SDS011;57541;47.408;18.822;2022-09-09T03:44:13;6.15;;;3.65;;
70165;SDS011;57541;47.408;18.822;2022-09-09T03:44:45;6.80;;;3.65;;
70165;SDS011;57541;47.408;18.822;2022-09-09T03:45:21;6.63;;;3.53;;
70165;SDS011;57541;47.408;18.822;2022-09-09T03:45:53;7.07;;;3.50;;
70165;SDS011;57541;47.408;18.822;2022-09-09T03:46:28;6.87;;;3.60;;
70165;SDS011;57541;47.408;18.822;2022-09-09T03:46:59;7.43;;;3.63;;
70165;SDS011;57541;47.408;18.822;2022-09-09T03:47:33;5.90;;;3.42;;
70165;SDS011;57541;47.408;18.822;2022-09-09T03:48:05;6.28;;;3.45;;
70165;SDS011;57541;47.408;18.822;2022-09-09T03:48:37;6.28;;;3.97;;
70165;SDS011;57541;47.408;18.822;2022-09-09T03:49:09;7.65;;;3.47;;
70165;SDS011;57541;47.408;18.822;2022-09-09T03:49:41;7.28;;;4.05;;
70165;SDS011;57541;47.408;18.822;2022-09-09T03:50:13;6.70;;;3.80;;
70165;SDS011;57541;47.408;18.822;2022-09-09T03:50:45;6.97;;;3.55;;
70165;SDS011;57541;47.408;18.822;2022-09-09T03:51:18;6.38;;;3.58;;
70165;SDS011;57541;47.408;18.822;2022-09-09T03:51:49;5.90;;;3.67;;
70165;SDS011;57541;47.408;18.822;2022-09-09T03:52:21;9.07;;;4.22;;
70165;SDS011;57541;47.408;18.822;2022-09-09T03:52:56;8.80;;;4.15;;
70165;SDS011;57541;47.408;18.822;2022-09-09T03:53:27;8.25;;;4.30;;
70165;SDS011;57541;47.408;18.822;2022-09-09T03:53:59;6.78;;;3.95;;
70165;SDS011;57541;47.408;18.822;2022-09-09T03:54:31;7.07;;;4.15;;
70165;SDS011;57541;47.408;18.822;2022-09-09T03:55:03;9.30;;;4.03;;
70165;SDS011;57541;47.408;18.822;2022-09-09T03:55:36;7.20;;;4.20;;
70165;SDS011;57541;47.408;18.822;2022-09-09T03:56:07;6.50;;;3.88;;
70165;SDS011;57541;47.408;18.822;2022-09-09T03:56:39;6.93;;;3.80;;
70165;SDS011;57541;47.408;18.822;2022-09-09T03:57:12;7.73;;;4.40;;
70165;SDS011;57541;47.408;18.822;2022-09-09T03:57:47;7.10;;;4.05;;
70165;SDS011;57541;47.408;18.822;2022-09-09T03:58:19;6.32;;;4.05;;
70165;SDS011;57541;47.408;18.822;2022-09-09T03:58:51;7.85;;;4.30;;
70165;SDS011;57541;47.408;18.822;2022-09-09T03:59:23;6.38;;;3.90;;
70165;SDS011;57541;47.408;18.822;2022-09-09T03:59:54;7.50;;;3.70;;
70165;SDS011;57541;47.408;18.822;2022-09-09T04:00:26;8.63;;;4.03;;
70165;SDS011;57541;47.408;18.822;2022-09-09T04:00:59;7.32;;;4.45;;
70165;SDS011;57541;47.408;18.822;2022-09-09T04:01:35;6.57;;;3.83;;
70165;SDS011;57541;47.408;18.822;2022-09-09T04:02:07;6.15;;;3.70;;
70165;SDS011;57541;47.408;18.822;2022-09-09T04:02:38;6.50;;;4.10;;
70165;SDS011;57541;47.408;18.822;2022-09-09T04:03:10;7.07;;;3.88;;
70165;SDS011;57541;47.408;18.822;2022-09-09T04:03:42;6.55;;;3.95;;
70165;SDS011;57541;47.408;18.822;2022-09-09T04:04:15;6.07;;;3.97;;
70165;SDS011;57541;47.408;18.822;2022-09-09T04:04:47;11.43;;;4.15;;
70165;SDS011;57541;47.408;18.822;2022-09-09T04:05:18;7.63;;;4.22;;
70165;SDS011;57541;47.408;18.822;2022-09-09T04:05:53;8.32;;;3.80;;
70165;SDS011;57541;47.408;18.822;2022-09-09T04:06:26;6.82;;;3.90;;
70165;SDS011;57541;47.408;18.822;2022-09-09T04:06:58;7.30;;;4.15;;
70165;SDS011;57541;47.408;18.822;2022-09-09T04:07:29;6.85;;;3.72;;
70165;SDS011;57541;47.408;18.822;2022-09-09T04:08:01;7.27;;;4.60;;
70165;SDS011;57541;47.408;18.822;2022-09-09T04:08:33;7.63;;;4.40;;
70165;SDS011;57541;47.408;18.822;2022-09-09T04:09:05;8.02;;;4.47;;
70165;SDS011;57541;47.408;18.822;2022-09-09T04:09:37;7.40;;;3.88;;
70165;SDS011;57541;47.408;18.822;2022-09-09T04:10:08;7.00;;;3.65;;
70165;SDS011;57541;47.408;18.822;2022-09-09T04:10:40;6.88;;;4.00;;
70165;SDS011;57541;47.408;18.822;2022-09-09T04:11:13;6.78;;;4.10;;
70165;SDS011;57541;47.408;18.822;2022-09-09T04:11:45;6.68;;;3.78;;
70165;SDS011;57541;47.408;18.822;2022-09-09T04:12:17;6.32;;;3.72;;